createdAt,value
2018-08-23T00:01:33.581Z,13.87
2018-08-23T00:04:11.796Z,12.00
2018-08-23T00:06:48.312Z,21.17
2018-08-23T00:09:16.898Z,11.83
2018-08-23T00:11:47.379Z,12.50
2018-08-23T00:14:16.761Z,19.17
2018-08-23T00:16:46.622Z,13.63
2018-08-23T00:19:15.924Z,13.73
2018-08-23T00:21:50.718Z,12.60
2018-08-23T00:24:20.403Z,20.17
2018-08-23T00:27:01.167Z,14.03
2018-08-23T00:29:33.421Z,10.83
2018-08-23T00:32:03.373Z,16.13
2018-08-23T00:34:33.320Z,15.83
2018-08-23T00:37:03.128Z,12.80
2018-08-23T00:39:31.844Z,11.23
2018-08-23T00:42:05.855Z,14.23
2018-08-23T00:44:51.137Z,10.30
2018-08-23T00:47:19.726Z,13.10
2018-08-23T00:49:48.314Z,10.27
2018-08-23T00:52:18.965Z,15.73
2018-08-23T00:54:47.638Z,11.00
2018-08-23T00:57:16.212Z,10.80
2018-08-23T00:59:49.440Z,11.10
2018-08-23T01:02:18.053Z,14.93
2018-08-23T01:04:47.510Z,9.40
2018-08-23T01:07:20.847Z,13.10
2018-08-23T01:09:49.745Z,14.03
2018-08-23T01:12:19.903Z,13.03
2018-08-23T01:14:50.251Z,9.80
2018-08-23T01:17:19.411Z,10.27
2018-08-23T01:19:57.357Z,11.53
2018-08-23T01:22:25.964Z,16.93
2018-08-23T01:24:54.619Z,14.77
2018-08-23T01:27:28.683Z,10.03
2018-08-23T01:29:57.350Z,10.53
2018-08-23T01:32:31.069Z,11.00
2018-08-23T01:34:59.944Z,10.23
2018-08-23T01:37:35.448Z,12.30
2018-08-23T01:40:06.166Z,10.87
2018-08-23T01:42:35.913Z,13.47
2018-08-23T01:45:05.755Z,13.00
2018-08-23T01:47:55.615Z,10.20
2018-08-23T01:50:24.971Z,15.50
2018-08-23T01:52:54.528Z,11.03
2018-08-23T01:55:24.246Z,12.37
2018-08-23T01:57:52.961Z,11.30
2018-08-23T02:00:24.777Z,9.60
2018-08-23T02:02:53.371Z,14.67
2018-08-23T02:05:22.086Z,11.30
2018-08-23T02:07:50.934Z,11.37
2018-08-23T02:10:19.532Z,17.43
2018-08-23T02:12:50.009Z,11.87
2018-08-23T02:15:18.768Z,13.50
2018-08-23T02:17:50.333Z,12.07
2018-08-23T02:20:18.893Z,10.90
2018-08-23T02:22:47.561Z,14.83
2018-08-23T02:25:16.212Z,10.90
2018-08-23T02:28:04.189Z,14.97
2018-08-23T02:30:55.943Z,11.30
2018-08-23T02:33:24.962Z,11.63
2018-08-23T02:36:04.836Z,13.13
2018-08-23T02:38:35.455Z,16.23
2018-08-23T02:41:10.774Z,14.33
2018-08-23T02:43:39.366Z,10.40
2018-08-23T02:46:07.912Z,13.90
2018-08-23T02:48:36.526Z,13.63
2018-08-23T02:51:05.136Z,14.30
2018-08-23T02:53:37.569Z,23.80
2018-08-23T02:56:13.422Z,14.30
2018-08-23T02:58:51.205Z,16.03
2018-08-23T03:01:19.806Z,21.13
2018-08-23T03:04:01.276Z,17.50
2018-08-23T03:06:35.710Z,11.30
2018-08-23T03:09:05.805Z,12.10
2018-08-23T03:11:36.444Z,16.57
2018-08-23T03:14:05.448Z,12.10
2018-08-23T03:16:46.690Z,11.60
2018-08-23T03:19:15.682Z,13.80
2018-08-23T03:21:44.469Z,15.33
2018-08-23T03:24:13.211Z,13.83
2018-08-23T03:26:41.809Z,14.97
2018-08-23T03:29:10.590Z,20.73
2018-08-23T03:31:39.204Z,16.33
2018-08-23T03:34:07.872Z,13.97
2018-08-23T03:36:36.608Z,14.10
2018-08-23T03:39:08.087Z,16.10
2018-08-23T03:41:36.658Z,11.90
2018-08-23T03:44:06.842Z,13.40
2018-08-23T03:46:47.671Z,10.87
2018-08-23T03:49:16.281Z,13.40
2018-08-23T03:51:44.951Z,12.67
2018-08-23T03:54:13.654Z,10.83
2018-08-23T03:56:46.530Z,11.33
2018-08-23T03:59:15.257Z,11.67
2018-08-23T04:01:43.814Z,16.53
2018-08-23T04:04:12.480Z,10.93
2018-08-23T04:06:41.130Z,11.60
2018-08-23T04:09:09.820Z,9.50
2018-08-23T04:11:38.406Z,12.03
2018-08-23T04:14:07.021Z,11.50
2018-08-23T04:16:35.607Z,13.20
2018-08-23T04:19:04.294Z,11.20
2018-08-23T04:21:32.849Z,15.43
2018-08-23T04:24:01.478Z,15.43
2018-08-23T04:26:30.012Z,13.23
2018-08-23T04:28:58.589Z,16.13
2018-08-23T04:31:27.220Z,14.53
2018-08-23T04:33:56.023Z,13.90
2018-08-23T04:36:30.004Z,13.13
2018-08-23T04:39:07.051Z,14.67
2018-08-23T04:41:35.741Z,12.10
2018-08-23T04:44:10.628Z,12.77
2018-08-23T04:46:39.346Z,12.90
2018-08-23T04:49:08.225Z,14.10
2018-08-23T04:51:37.576Z,10.07
2018-08-23T04:54:06.420Z,12.13
2018-08-23T04:56:35.001Z,20.23
2018-08-23T04:59:03.593Z,14.33
2018-08-23T05:01:32.271Z,15.60
2018-08-23T05:04:00.867Z,14.40
2018-08-23T05:06:29.471Z,12.20
2018-08-23T05:08:58.446Z,11.30
2018-08-23T05:11:27.069Z,15.83
2018-08-23T05:13:55.710Z,12.63
2018-08-23T05:16:24.264Z,12.93
2018-08-23T05:18:52.885Z,10.80
2018-08-23T05:21:21.469Z,9.37
2018-08-23T05:23:50.436Z,9.77
2018-08-23T05:26:19.598Z,12.33
2018-08-23T05:29:01.481Z,11.13
2018-08-23T05:31:31.225Z,12.07
2018-08-23T05:34:02.111Z,11.27
2018-08-23T05:36:30.796Z,12.73
2018-08-23T05:39:00.153Z,10.87
2018-08-23T05:41:28.789Z,10.87
2018-08-23T05:44:03.724Z,11.50
2018-08-23T05:46:37.186Z,14.63
2018-08-23T05:49:05.895Z,11.13
2018-08-23T05:51:38.090Z,11.17
2018-08-23T05:54:07.609Z,10.97
2018-08-23T05:56:36.491Z,13.10
2018-08-23T05:59:10.644Z,15.40
2018-08-23T06:01:39.256Z,11.23
2018-08-23T06:04:07.880Z,10.20
2018-08-23T06:06:36.611Z,14.30
2018-08-23T06:09:07.613Z,10.37
2018-08-23T06:11:36.241Z,9.93
2018-08-23T06:14:04.852Z,13.47
2018-08-23T06:16:38.415Z,15.73
2018-08-23T06:19:07.163Z,12.77
2018-08-23T06:21:35.750Z,12.93
2018-08-23T06:24:08.325Z,24.03
2018-08-23T06:26:45.778Z,14.73
2018-08-23T06:29:16.256Z,11.30
2018-08-23T06:31:58.858Z,9.70
2018-08-23T06:34:30.825Z,11.40
2018-08-23T06:36:59.537Z,14.73
2018-08-23T06:39:28.124Z,20.97
2018-08-23T06:41:59.497Z,14.83
2018-08-23T06:44:38.678Z,12.40
2018-08-23T06:47:07.797Z,15.07
2018-08-23T06:49:36.543Z,12.10
2018-08-23T06:52:44.565Z,11.27
2018-08-23T06:55:15.322Z,13.70
2018-08-23T06:57:48.239Z,12.90
2018-08-23T07:00:22.165Z,11.60
2018-08-23T07:02:50.915Z,11.93
2018-08-23T07:05:20.181Z,11.53
2018-08-23T07:07:48.880Z,13.40
2018-08-23T07:10:17.563Z,12.37
2018-08-23T07:12:46.227Z,12.00
2018-08-23T07:15:14.859Z,10.73
2018-08-23T07:17:43.613Z,15.43
2018-08-23T07:20:16.162Z,11.53
2018-08-23T07:22:44.970Z,14.67
2018-08-23T07:25:16.405Z,12.43
2018-08-23T07:27:45.191Z,12.13
2018-08-23T07:30:16.658Z,11.97
2018-08-23T07:32:46.639Z,15.90
2018-08-23T07:35:17.795Z,12.47
2018-08-23T07:37:47.909Z,16.00
2018-08-23T07:40:20.716Z,17.30
2018-08-23T07:42:50.508Z,20.53
2018-08-23T07:45:19.792Z,17.83
2018-08-23T07:47:52.887Z,14.17
2018-08-23T07:50:26.366Z,16.43
2018-08-23T07:52:55.548Z,17.20
2018-08-23T07:55:24.001Z,12.30
2018-08-23T07:57:53.310Z,12.80
2018-08-23T08:00:38.364Z,15.27
2018-08-23T08:03:08.395Z,14.20
2018-08-23T08:05:39.118Z,19.90
2018-08-23T08:08:08.821Z,14.70
2018-08-23T08:10:39.358Z,15.80
2018-08-23T08:13:08.512Z,24.30
2018-08-23T08:15:37.204Z,15.47
2018-08-23T08:18:20.837Z,17.40
2018-08-23T08:20:55.630Z,14.50
2018-08-23T08:23:24.328Z,14.23
2018-08-23T08:25:53.042Z,14.33
2018-08-23T08:28:21.909Z,15.70
2018-08-23T08:30:58.262Z,14.17
2018-08-23T08:33:31.913Z,9.47
2018-08-23T08:36:01.870Z,10.10
2018-08-23T08:38:31.903Z,10.50
2018-08-23T08:41:00.487Z,10.53
2018-08-23T08:43:29.131Z,11.80
2018-08-23T08:45:59.261Z,10.17
2018-08-23T08:48:32.856Z,15.83
2018-08-23T08:51:18.676Z,12.53
2018-08-23T08:53:47.766Z,10.77
2018-08-23T08:56:18.447Z,9.07
2018-08-23T08:58:47.134Z,7.63
2018-08-23T09:01:15.924Z,7.83
2018-08-23T09:03:44.646Z,6.97
2018-08-23T09:06:17.505Z,9.67
2018-08-23T09:08:46.188Z,6.97
2018-08-23T09:11:15.247Z,10.60
2018-08-23T09:13:47.294Z,9.00
2018-08-23T09:16:16.205Z,7.93
2018-08-23T09:18:54.917Z,8.27
2018-08-23T09:21:23.676Z,7.90
2018-08-23T09:23:52.318Z,9.60
2018-08-23T09:26:25.186Z,7.17
2018-08-23T09:28:55.088Z,7.00
2018-08-23T09:31:24.110Z,9.87
2018-08-23T09:33:52.692Z,7.23
2018-08-23T09:36:21.333Z,6.17
2018-08-23T09:38:50.444Z,8.20
2018-08-23T09:41:19.213Z,6.43
2018-08-23T09:43:47.775Z,6.60
2018-08-23T09:46:16.440Z,6.70
2018-08-23T09:48:45.276Z,6.53
2018-08-23T09:51:19.695Z,7.60
2018-08-23T09:53:48.671Z,6.70
2018-08-23T09:56:22.532Z,5.50
2018-08-23T09:58:52.225Z,7.13
2018-08-23T10:01:26.346Z,5.53
2018-08-23T10:04:00.450Z,6.10
2018-08-23T10:06:34.448Z,5.90
2018-08-23T10:09:15.074Z,5.23
2018-08-23T10:11:51.128Z,6.37
2018-08-23T10:16:25.938Z,6.17
2018-08-23T10:18:57.063Z,5.97
2018-08-23T10:21:30.946Z,5.87
2018-08-23T10:24:16.601Z,5.23
2018-08-23T10:26:46.062Z,5.50
2018-08-23T10:29:14.637Z,10.20
2018-08-23T10:31:43.195Z,7.47
2018-08-23T10:34:11.969Z,4.83
2018-08-23T10:36:40.575Z,7.60
2018-08-23T10:39:11.899Z,5.30
2018-08-23T10:41:41.315Z,5.30
2018-08-23T10:44:10.286Z,5.20
2018-08-23T10:46:44.059Z,5.93
2018-08-23T10:52:02.081Z,7.80
2018-08-23T10:54:35.175Z,4.83
2018-08-23T10:57:12.856Z,7.97
2018-08-23T10:59:41.606Z,4.60
2018-08-23T11:02:10.390Z,5.40
2018-08-23T11:04:38.904Z,4.80
2018-08-23T11:07:07.789Z,5.13
2018-08-23T11:09:42.125Z,4.50
2018-08-23T11:12:14.934Z,5.07
2018-08-23T11:14:43.688Z,4.97
2018-08-23T11:17:17.671Z,4.93
2018-08-23T11:20:53.177Z,5.10
2018-08-23T11:23:26.109Z,6.73
2018-08-23T11:25:54.977Z,5.63
2018-08-23T11:28:24.830Z,7.33
2018-08-23T11:30:53.928Z,4.70
2018-08-23T11:33:22.813Z,4.77
2018-08-23T11:35:51.436Z,5.80
2018-08-23T11:38:20.114Z,10.83
2018-08-23T11:40:49.242Z,4.17
2018-08-23T11:43:17.847Z,4.30
2018-08-23T11:45:46.565Z,4.50
2018-08-23T11:48:15.177Z,5.80
2018-08-23T11:50:43.964Z,4.40
2018-08-23T11:53:12.581Z,6.47
2018-08-23T11:55:41.199Z,6.43
2018-08-23T11:58:09.897Z,6.23
2018-08-23T12:00:38.435Z,4.60
2018-08-23T12:03:07.141Z,4.37
2018-08-23T12:05:35.858Z,4.53
2018-08-23T12:08:04.404Z,4.30
2018-08-23T12:10:33.314Z,5.07
2018-08-23T12:13:02.692Z,4.90
2018-08-23T12:15:33.216Z,3.73
2018-08-23T12:18:06.451Z,4.57
2018-08-23T12:20:35.138Z,5.80
2018-08-23T12:23:03.833Z,4.30
2018-08-23T12:25:32.639Z,5.00
2018-08-23T12:28:03.186Z,6.23
2018-08-23T12:30:32.479Z,4.20
2018-08-23T12:33:01.040Z,3.50
2018-08-23T12:35:32.297Z,6.10
2018-08-23T12:38:06.325Z,4.10
2018-08-23T12:40:40.242Z,4.40
2018-08-23T12:43:12.090Z,4.13
2018-08-23T12:45:41.753Z,3.53
2018-08-23T12:48:11.577Z,3.80
2018-08-23T12:50:40.865Z,3.77
2018-08-23T12:53:09.517Z,3.77
2018-08-23T12:55:38.156Z,4.90
2018-08-23T12:58:10.000Z,4.50
2018-08-23T13:00:39.421Z,4.23
2018-08-23T13:03:08.343Z,3.47
2018-08-23T13:05:37.483Z,4.30
2018-08-23T13:08:06.348Z,4.47
2018-08-23T13:10:35.874Z,5.90
2018-08-23T13:13:04.558Z,3.53
2018-08-23T13:15:33.165Z,5.83
2018-08-23T13:18:01.965Z,3.70
2018-08-23T13:20:30.732Z,3.50
2018-08-23T13:22:59.447Z,5.13
2018-08-23T13:25:27.985Z,3.77
2018-08-23T13:27:56.640Z,3.87
2018-08-23T13:30:25.319Z,3.80
2018-08-23T13:32:53.889Z,4.60
2018-08-23T13:35:22.549Z,5.07
2018-08-23T13:37:51.138Z,5.23
2018-08-23T13:40:20.304Z,3.23
2018-08-23T13:42:49.421Z,4.00
2018-08-23T13:45:18.166Z,3.63
2018-08-23T13:47:47.304Z,3.40
2018-08-23T13:50:15.931Z,3.90
2018-08-23T13:52:44.500Z,4.30
2018-08-23T13:55:13.223Z,3.93
2018-08-23T13:57:41.861Z,4.37
2018-08-23T14:00:14.650Z,3.73
2018-08-23T14:02:43.416Z,4.53
2018-08-23T14:05:11.957Z,3.90
2018-08-23T14:07:40.619Z,4.57
2018-08-23T14:10:09.263Z,3.53
2018-08-23T14:12:38.047Z,3.40
2018-08-23T14:15:10.847Z,3.70
2018-08-23T14:17:39.516Z,4.90
2018-08-23T14:20:08.265Z,4.17
2018-08-23T14:22:37.000Z,3.73
2018-08-23T14:25:05.609Z,3.70
2018-08-23T14:27:34.277Z,3.50
2018-08-23T14:30:02.975Z,6.30
2018-08-23T14:32:31.569Z,3.70
2018-08-23T14:35:00.194Z,6.43
2018-08-23T14:37:28.910Z,4.27
2018-08-23T14:39:57.856Z,4.87
2018-08-23T14:42:26.393Z,3.20
2018-08-23T14:44:55.006Z,3.53
2018-08-23T14:47:28.915Z,3.97
2018-08-23T14:49:57.500Z,6.13
2018-08-23T14:52:26.040Z,4.03
2018-08-23T14:54:54.673Z,4.30
2018-08-23T14:57:28.386Z,3.40
2018-08-23T14:59:57.032Z,3.87
2018-08-23T15:02:25.643Z,3.70
2018-08-23T15:04:54.196Z,3.27
2018-08-23T15:07:23.175Z,4.13
2018-08-23T15:09:51.796Z,3.43
2018-08-23T15:12:20.370Z,4.00
2018-08-23T15:14:49.040Z,3.03
2018-08-23T15:17:17.663Z,3.60
2018-08-23T15:19:46.521Z,3.67
2018-08-23T15:22:15.095Z,3.60
2018-08-23T15:24:43.713Z,3.93
2018-08-23T15:27:12.577Z,7.90
2018-08-23T15:29:41.196Z,6.90
2018-08-23T15:32:09.780Z,6.13
2018-08-23T15:34:38.477Z,7.17
2018-08-23T15:37:07.169Z,4.40
2018-08-23T15:39:36.905Z,4.50
2018-08-23T15:42:05.594Z,7.63
2018-08-23T15:44:34.714Z,8.80
2018-08-23T15:47:03.521Z,5.40
2018-08-23T15:49:32.060Z,6.50
2018-08-23T15:52:00.643Z,5.33
2018-08-23T15:54:29.290Z,10.13
2018-08-23T15:56:57.868Z,4.17
2018-08-23T15:59:28.349Z,5.70
2018-08-23T16:01:57.202Z,3.60
2018-08-23T16:04:26.076Z,3.50
2018-08-23T16:06:54.737Z,7.43
2018-08-23T16:09:23.414Z,7.63
2018-08-23T16:11:52.198Z,5.10
2018-08-23T16:14:20.748Z,11.00
2018-08-23T16:16:54.515Z,7.93
2018-08-23T16:19:28.421Z,6.60
2018-08-23T16:21:58.315Z,4.53
2018-08-23T16:24:28.615Z,12.20
2018-08-23T16:27:05.033Z,8.20
2018-08-23T16:29:34.461Z,6.63
2018-08-23T16:32:03.027Z,3.83
2018-08-23T16:34:31.781Z,4.23
2018-08-23T16:37:00.336Z,7.13
2018-08-23T16:39:28.902Z,5.77
2018-08-23T16:41:57.608Z,6.20
2018-08-23T16:44:26.191Z,9.03
2018-08-23T16:46:54.707Z,17.53
2018-08-23T16:49:23.419Z,8.43
2018-08-23T16:51:52.064Z,11.63
2018-08-23T16:54:20.616Z,7.80
2018-08-23T16:56:49.147Z,11.90
2018-08-23T16:59:17.733Z,7.57
2018-08-23T17:01:46.837Z,7.97
2018-08-23T17:04:15.429Z,12.90
2018-08-23T17:06:44.052Z,10.00
2018-08-23T17:09:12.709Z,4.87
2018-08-23T17:11:41.258Z,4.50
2018-08-23T17:14:13.353Z,5.10
2018-08-23T17:16:47.201Z,5.63
2018-08-23T17:19:16.201Z,4.30
2018-08-23T17:21:44.803Z,6.57
2018-08-23T17:24:13.312Z,6.33
2018-08-23T17:26:41.928Z,7.57
2018-08-23T17:29:10.599Z,8.33
2018-08-23T17:31:39.132Z,6.00
2018-08-23T17:34:07.834Z,10.00
2018-08-23T17:36:36.410Z,6.97
2018-08-23T17:39:06.389Z,4.23
2018-08-23T17:41:35.048Z,6.23
2018-08-23T17:44:03.604Z,5.40
2018-08-23T17:46:33.943Z,6.03
2018-08-23T17:49:03.173Z,5.13
2018-08-23T17:51:31.685Z,7.87
2018-08-23T17:54:00.415Z,12.27
2018-08-23T17:56:29.048Z,8.97
2018-08-23T17:58:57.653Z,7.10
2018-08-23T18:01:26.206Z,10.90
2018-08-23T18:03:54.743Z,9.07
2018-08-23T18:06:23.480Z,6.70
2018-08-23T18:08:52.030Z,8.30
2018-08-23T18:11:20.594Z,18.63
2018-08-23T18:13:49.218Z,9.47
2018-08-23T18:16:22.971Z,9.97
2018-08-23T18:18:51.528Z,10.80
2018-08-23T18:21:20.134Z,6.40
2018-08-23T18:23:48.738Z,6.43
2018-08-23T18:26:17.269Z,8.27
2018-08-23T18:28:45.762Z,8.53
2018-08-23T18:31:14.368Z,6.63
2018-08-23T18:33:42.933Z,72.07
2018-08-23T18:36:11.479Z,39.43
2018-08-23T18:38:40.038Z,12.50
2018-08-23T18:41:09.189Z,11.77
2018-08-23T18:43:38.073Z,12.67
2018-08-23T18:46:07.001Z,10.20
2018-08-23T18:48:35.529Z,11.03
2018-08-23T18:51:04.133Z,12.90
2018-08-23T18:53:32.916Z,9.03
2018-08-23T18:56:01.413Z,6.70
2018-08-23T18:58:29.970Z,13.23
2018-08-23T19:00:58.620Z,14.03
2018-08-23T19:03:27.136Z,7.57
2018-08-23T19:05:55.713Z,7.47
2018-08-23T19:08:24.461Z,9.50
2018-08-23T19:10:53.512Z,6.23
2018-08-23T19:13:22.249Z,7.80
2018-08-23T19:15:56.350Z,7.70
2018-08-23T19:18:25.019Z,6.20
2018-08-23T19:20:53.554Z,7.43
2018-08-23T19:23:22.136Z,26.27
2018-08-23T19:25:51.029Z,8.67
2018-08-23T19:28:19.642Z,11.03
2018-08-23T19:30:48.238Z,13.63
2018-08-23T19:33:16.824Z,8.40
2018-08-23T19:35:45.439Z,6.97
2018-08-23T19:38:14.002Z,5.50
2018-08-23T19:40:42.561Z,10.13
2018-08-23T19:43:11.177Z,5.87
2018-08-23T19:45:45.358Z,5.20
2018-08-23T19:48:13.962Z,4.90
2018-08-23T19:50:42.517Z,8.60
2018-08-23T19:53:11.087Z,9.10
2018-08-23T19:55:39.620Z,9.00
2018-08-23T19:58:08.128Z,8.60
2018-08-23T20:00:36.852Z,6.53
2018-08-23T20:03:05.578Z,9.60
2018-08-23T20:05:34.309Z,6.63
2018-08-23T20:08:02.967Z,8.27
2018-08-23T20:10:31.716Z,12.23
2018-08-23T20:13:00.361Z,7.13
2018-08-23T20:15:28.888Z,9.20
2018-08-23T20:17:57.572Z,6.00
2018-08-23T20:20:26.061Z,7.93
2018-08-23T20:22:54.732Z,5.57
2018-08-23T20:25:23.298Z,10.83
2018-08-23T20:27:52.208Z,10.13
2018-08-23T20:30:20.782Z,10.70
2018-08-23T20:32:49.371Z,9.43
2018-08-23T20:35:18.005Z,6.60
2018-08-23T20:37:46.560Z,3.83
2018-08-23T20:40:15.113Z,6.83
2018-08-23T20:42:43.889Z,4.60
2018-08-23T20:45:12.500Z,5.33
2018-08-23T20:47:41.070Z,7.80
2018-08-23T20:50:09.623Z,6.90
2018-08-23T20:52:38.304Z,11.60
2018-08-23T20:55:06.932Z,5.50
2018-08-23T20:57:36.269Z,6.63
2018-08-23T21:00:05.637Z,5.37
2018-08-23T21:02:34.341Z,5.30
2018-08-23T21:05:03.551Z,4.90
2018-08-23T21:07:32.229Z,4.53
2018-08-23T21:10:00.988Z,7.60
2018-08-23T21:12:29.588Z,6.50
2018-08-23T21:14:58.189Z,4.03
2018-08-23T21:17:26.760Z,5.17
2018-08-23T21:19:55.341Z,5.33
2018-08-23T21:22:23.942Z,8.70
2018-08-23T21:24:52.534Z,7.60
2018-08-23T21:27:21.074Z,12.07
2018-08-23T21:29:50.413Z,12.43
2018-08-23T21:32:19.135Z,5.97
2018-08-23T21:34:47.654Z,6.87
2018-08-23T21:37:16.312Z,7.03
2018-08-23T21:39:44.882Z,4.80
2018-08-23T21:42:13.437Z,5.43
2018-08-23T21:44:41.988Z,15.83
2018-08-23T21:47:10.597Z,8.53
2018-08-23T21:49:39.892Z,7.10
2018-08-23T21:52:08.437Z,8.20
2018-08-23T21:54:37.037Z,5.50
2018-08-23T21:57:05.797Z,10.30
2018-08-23T21:59:34.448Z,10.00
2018-08-23T22:02:08.779Z,9.60
2018-08-23T22:04:43.261Z,12.33
2018-08-23T22:07:11.814Z,11.63
2018-08-23T22:09:41.019Z,6.23
2018-08-23T22:12:09.724Z,9.10
2018-08-23T22:14:38.290Z,15.10
2018-08-23T22:17:06.902Z,8.20
2018-08-23T22:19:35.558Z,6.60
2018-08-23T22:22:04.217Z,5.90
2018-08-23T22:24:32.786Z,13.73
2018-08-23T22:27:01.518Z,5.37
2018-08-23T22:29:30.286Z,6.97
2018-08-23T22:31:59.949Z,9.40
2018-08-23T22:34:28.501Z,4.70
2018-08-23T22:36:57.087Z,9.10
2018-08-23T22:39:25.767Z,7.53
2018-08-23T22:41:54.705Z,8.33
2018-08-23T22:44:23.307Z,9.53
2018-08-23T22:46:51.819Z,6.43
2018-08-23T22:49:20.634Z,5.80
2018-08-23T22:51:49.377Z,4.83
2018-08-23T22:54:18.356Z,11.93
2018-08-23T22:56:46.937Z,10.27
2018-08-23T22:59:15.786Z,7.10
2018-08-23T23:01:45.486Z,5.87
2018-08-23T23:04:19.400Z,5.90
2018-08-23T23:06:48.250Z,4.20
2018-08-23T23:09:16.911Z,8.83
2018-08-23T23:11:45.904Z,11.80
2018-08-23T23:14:14.478Z,4.73
2018-08-23T23:16:43.045Z,11.43
2018-08-23T23:19:11.690Z,6.70
2018-08-23T23:21:40.380Z,9.90
2018-08-23T23:24:14.272Z,6.30
2018-08-23T23:26:42.936Z,5.17
2018-08-23T23:29:11.563Z,13.40
2018-08-23T23:31:40.499Z,10.77
2018-08-23T23:34:09.308Z,7.73
2018-08-23T23:36:38.821Z,6.20
2018-08-23T23:39:08.769Z,6.77
2018-08-23T23:41:38.185Z,7.53
2018-08-23T23:44:06.758Z,7.53
2018-08-23T23:46:35.313Z,5.77
2018-08-23T23:49:04.173Z,7.80
2018-08-23T23:51:33.299Z,11.43
2018-08-23T23:54:01.888Z,3.93
2018-08-23T23:56:30.552Z,9.10
2018-08-23T23:58:59.128Z,9.47
